AMX400 MMMX-KJFK
Flight info
| Callsign | AMX400 |
|---|---|
| Flight time | N/A |
| Altitude | 41000 |
| Route | IKLAN2A IKLAN UT140 TAM UM575 CLONN M575 TBD DCT HRV Q56 CATLN Q64 SAWED Q108 SIE CAMRN5 |
| Aircraft | A359/H-SDE2E3GHIJ3J4J5LM1ORWXY/LB1D1 |
Departure
| Time | 2026-05-05 19:10 |
|---|---|
| Airport | Mexico City Benito Juárez International Airport (MMMX) |
Arrival
| Time | N/A |
|---|---|
| Airport | John F. Kennedy International Airport (KJFK) |
| Time | Latitude | Longitude | Altitude | Speed | Heading |
|---|---|---|---|---|---|
| 2026-05-05 18:56 | 19.42440 | -99.08005 | 7314 ft | 3 kts | 92° |
| 2026-05-05 18:56 | 19.42441 | -99.08025 | 7314 ft | 3 kts | 102° |
| 2026-05-05 18:56 | 19.42447 | -99.08044 | 7314 ft | 3 kts | 126° |
| 2026-05-05 18:56 | 19.42460 | -99.08060 | 7314 ft | 3 kts | 143° |
| 2026-05-05 18:57 | 19.42474 | -99.08069 | 7314 ft | 1 kts | 149° |
| 2026-05-05 18:57 | 19.42475 | -99.08070 | 7314 ft | 0 kts | 149° |
| 2026-05-05 19:03 | 19.42473 | -99.08069 | 7313 ft | 3 kts | 149° |
| 2026-05-05 19:04 | 19.42446 | -99.08063 | 7306 ft | 4 kts | 182° |
| 2026-05-05 19:04 | 19.42421 | -99.08086 | 7314 ft | 5 kts | 245° |
| 2026-05-05 19:04 | 19.42421 | -99.08117 | 7314 ft | 4 kts | 274° |
| 2026-05-05 19:04 | 19.42421 | -99.08151 | 7314 ft | 5 kts | 262° |
| 2026-05-05 19:05 | 19.42409 | -99.08196 | 7314 ft | 5 kts | 273° |
| 2026-05-05 19:05 | 19.42427 | -99.08223 | 7314 ft | 5 kts | 317° |
| 2026-05-05 19:05 | 19.42467 | -99.08253 | 7314 ft | 9 kts | 331° |
| 2026-05-05 19:05 | 19.42514 | -99.08282 | 7314 ft | 7 kts | 330° |
| 2026-05-05 19:06 | 19.42548 | -99.08311 | 7314 ft | 6 kts | 311° |
| 2026-05-05 19:06 | 19.42571 | -99.08357 | 7314 ft | 9 kts | 296° |
| 2026-05-05 19:06 | 19.42602 | -99.08430 | 7315 ft | 11 kts | 293° |
| 2026-05-05 19:06 | 19.42622 | -99.08476 | 7315 ft | 0 kts | 295° |
| 2026-05-05 19:07 | 19.42638 | -99.08513 | 7315 ft | 8 kts | 294° |
| 2026-05-05 19:07 | 19.42664 | -99.08568 | 7315 ft | 7 kts | 309° |
| 2026-05-05 19:08 | 19.42695 | -99.08580 | 7317 ft | 3 kts | 0° |
| 2026-05-05 19:08 | 19.42725 | -99.08552 | 7316 ft | 6 kts | 65° |
| 2026-05-05 19:08 | 19.42745 | -99.08502 | 7316 ft | 8 kts | 64° |
| 2026-05-05 19:08 | 19.42774 | -99.08452 | 7315 ft | 8 kts | 58° |
| 2026-05-05 19:09 | 19.42869 | -99.08286 | 7316 ft | 55 kts | 59° |
| 2026-05-05 19:09 | 19.43173 | -99.07744 | 7317 ft | 114 kts | 58° |
| 2026-05-05 19:09 | 19.43664 | -99.06865 | 7314 ft | 165 kts | 59° |
| 2026-05-05 19:09 | 19.44304 | -99.05738 | 7689 ft | 181 kts | 57° |
| 2026-05-05 19:10 | 19.44985 | -99.04614 | 8569 ft | 183 kts | 57° |
| 2026-05-05 19:10 | 19.45718 | -99.03417 | 9000 ft | 206 kts | 58° |
| 2026-05-05 19:10 | 19.46525 | -99.02079 | 9176 ft | 224 kts | 58° |
| 2026-05-05 19:10 | 19.47391 | -99.00631 | 9342 ft | 242 kts | 58° |
| 2026-05-05 19:11 | 19.48322 | -98.99066 | 9445 ft | 260 kts | 58° |
| 2026-05-05 19:11 | 19.49316 | -98.97390 | 9523 ft | 277 kts | 58° |
| 2026-05-05 19:11 | 19.50350 | -98.95598 | 9632 ft | 291 kts | 59° |
| 2026-05-05 19:11 | 19.51373 | -98.93756 | 10080 ft | 296 kts | 60° |
| 2026-05-05 19:12 | 19.52441 | -98.91831 | 10356 ft | 312 kts | 60° |
| 2026-05-05 19:12 | 19.53692 | -98.89881 | 10560 ft | 328 kts | 51° |
| 2026-05-05 19:12 | 19.55238 | -98.88019 | 10767 ft | 344 kts | 48° |
| 2026-05-05 19:12 | 19.56891 | -98.86126 | 11040 ft | 354 kts | 47° |
| 2026-05-05 19:13 | 19.58568 | -98.84207 | 11573 ft | 355 kts | 48° |
| 2026-05-05 19:13 | 19.60250 | -98.82278 | 12131 ft | 358 kts | 48° |
| 2026-05-05 19:13 | 19.61944 | -98.80328 | 12686 ft | 360 kts | 48° |
| 2026-05-05 19:13 | 19.63644 | -98.78369 | 13287 ft | 362 kts | 48° |
| 2026-05-05 19:14 | 19.65328 | -98.76425 | 13863 ft | 363 kts | 48° |
| 2026-05-05 19:14 | 19.67036 | -98.74453 | 14517 ft | 363 kts | 49° |
| 2026-05-05 19:14 | 19.68772 | -98.72504 | 15219 ft | 365 kts | 45° |
| 2026-05-05 19:14 | 19.70808 | -98.70881 | 15739 ft | 370 kts | 30° |
| 2026-05-05 19:15 | 19.73246 | -98.69907 | 16075 ft | 382 kts | 12° |
| 2026-05-05 19:15 | 19.75928 | -98.69573 | 16294 ft | 395 kts | 5° |
| 2026-05-05 19:15 | 19.78702 | -98.69407 | 16607 ft | 403 kts | 4° |
| 2026-05-05 19:15 | 19.81508 | -98.69246 | 17040 ft | 407 kts | 4° |
| 2026-05-05 19:16 | 19.84347 | -98.69073 | 17495 ft | 410 kts | 4° |
| 2026-05-05 19:16 | 19.87166 | -98.68894 | 17939 ft | 413 kts | 5° |
| 2026-05-05 19:16 | 19.90046 | -98.68706 | 18356 ft | 416 kts | 4° |
| 2026-05-05 19:16 | 19.92948 | -98.68556 | 18734 ft | 420 kts | 2° |
| 2026-05-05 19:17 | 19.95879 | -98.68843 | 19063 ft | 427 kts | 349° |
| 2026-05-05 19:17 | 19.98701 | -98.69858 | 19463 ft | 432 kts | 335° |
| 2026-05-05 19:17 | 20.01277 | -98.71523 | 19896 ft | 434 kts | 326° |
| 2026-05-05 19:17 | 20.03725 | -98.73404 | 20400 ft | 435 kts | 324° |
| 2026-05-05 19:18 | 20.06170 | -98.75316 | 20844 ft | 437 kts | 324° |
| 2026-05-05 19:18 | 20.08632 | -98.77236 | 21288 ft | 440 kts | 324° |
| 2026-05-05 19:18 | 20.11072 | -98.79131 | 21733 ft | 442 kts | 324° |
| 2026-05-05 19:18 | 20.13565 | -98.81066 | 22150 ft | 445 kts | 324° |
| 2026-05-05 19:19 | 20.16071 | -98.83012 | 22567 ft | 448 kts | 324° |
| 2026-05-05 19:19 | 20.18587 | -98.84985 | 23029 ft | 450 kts | 324° |
| 2026-05-05 19:19 | 20.21173 | -98.86868 | 23467 ft | 452 kts | 330° |
| 2026-05-05 19:19 | 20.24017 | -98.88298 | 23773 ft | 454 kts | 341° |
| 2026-05-05 19:20 | 20.27085 | -98.89092 | 24068 ft | 456 kts | 353° |
| 2026-05-05 19:20 | 20.30257 | -98.89276 | 24383 ft | 459 kts | 0° |
| 2026-05-05 19:20 | 20.33462 | -98.89240 | 24760 ft | 461 kts | 1° |
| 2026-05-05 19:20 | 20.36640 | -98.89182 | 25124 ft | 465 kts | 1° |
| 2026-05-05 19:21 | 20.39883 | -98.89092 | 25515 ft | 468 kts | 4° |
| 2026-05-05 19:21 | 20.43112 | -98.88602 | 25920 ft | 471 kts | 14° |
| 2026-05-05 19:21 | 20.46224 | -98.87490 | 26289 ft | 474 kts | 24° |
| 2026-05-05 19:21 | 20.49222 | -98.86001 | 26700 ft | 478 kts | 26° |
| 2026-05-05 19:22 | 20.52204 | -98.84398 | 27112 ft | 481 kts | 27° |
| 2026-05-05 19:22 | 20.55186 | -98.82740 | 27487 ft | 485 kts | 28° |
| 2026-05-05 19:22 | 20.58187 | -98.81056 | 27881 ft | 489 kts | 28° |
| 2026-05-05 19:22 | 20.61168 | -98.79388 | 28299 ft | 493 kts | 27° |
| 2026-05-05 19:23 | 20.64223 | -98.77691 | 28687 ft | 496 kts | 27° |
| 2026-05-05 19:23 | 20.67303 | -98.75991 | 29080 ft | 499 kts | 27° |
| 2026-05-05 19:23 | 20.70396 | -98.74291 | 29498 ft | 503 kts | 27° |
| 2026-05-05 19:23 | 20.73515 | -98.72583 | 29879 ft | 505 kts | 26° |
| 2026-05-05 19:24 | 20.76652 | -98.70864 | 30228 ft | 507 kts | 27° |
| 2026-05-05 19:24 | 20.79797 | -98.69139 | 30582 ft | 508 kts | 27° |
| 2026-05-05 19:24 | 20.82909 | -98.67431 | 30870 ft | 511 kts | 27° |
| 2026-05-05 19:24 | 20.86080 | -98.65690 | 31162 ft | 514 kts | 27° |
| 2026-05-05 19:25 | 20.89267 | -98.63939 | 31427 ft | 517 kts | 27° |
| 2026-05-05 19:25 | 20.92473 | -98.62176 | 31692 ft | 519 kts | 27° |
| 2026-05-05 19:25 | 20.95700 | -98.60401 | 31939 ft | 522 kts | 27° |
| 2026-05-05 19:25 | 20.98938 | -98.58618 | 32212 ft | 524 kts | 27° |
| 2026-05-05 19:26 | 21.02183 | -98.56831 | 32578 ft | 524 kts | 27° |
| 2026-05-05 19:26 | 21.05415 | -98.55051 | 32966 ft | 523 kts | 27° |
| 2026-05-05 19:26 | 21.08653 | -98.53267 | 33303 ft | 523 kts | 27° |
| 2026-05-05 19:26 | 21.11894 | -98.51479 | 33646 ft | 523 kts | 27° |
| 2026-05-05 19:27 | 21.15081 | -98.49721 | 33974 ft | 522 kts | 27° |
| 2026-05-05 19:27 | 21.18306 | -98.47940 | 34323 ft | 521 kts | 27° |
| 2026-05-05 19:27 | 21.21519 | -98.46165 | 34677 ft | 519 kts | 27° |
| 2026-05-05 19:27 | 21.24727 | -98.44392 | 35026 ft | 517 kts | 26° |
| 2026-05-05 19:28 | 21.27917 | -98.42629 | 35361 ft | 516 kts | 26° |
| 2026-05-05 19:28 | 21.31103 | -98.40867 | 35683 ft | 515 kts | 26° |
| 2026-05-05 19:28 | 21.34283 | -98.39107 | 35997 ft | 514 kts | 26° |
| 2026-05-05 19:28 | 21.37457 | -98.37350 | 36311 ft | 513 kts | 26° |
| 2026-05-05 19:29 | 21.40579 | -98.35621 | 36620 ft | 511 kts | 26° |
| 2026-05-05 19:29 | 21.43734 | -98.33873 | 36931 ft | 510 kts | 26° |
| 2026-05-05 19:29 | 21.46886 | -98.32125 | 37196 ft | 510 kts | 26° |
| 2026-05-05 19:29 | 21.50027 | -98.30383 | 37478 ft | 508 kts | 26° |
| 2026-05-05 19:30 | 21.53169 | -98.28638 | 37762 ft | 507 kts | 26° |
| 2026-05-05 19:30 | 21.56306 | -98.26896 | 38027 ft | 507 kts | 26° |
| 2026-05-05 19:30 | 21.59429 | -98.25161 | 38297 ft | 506 kts | 26° |
| 2026-05-05 19:30 | 21.62517 | -98.23444 | 38478 ft | 506 kts | 26° |
| 2026-05-05 19:31 | 21.65642 | -98.21707 | 38636 ft | 506 kts | 26° |
| 2026-05-05 19:31 | 21.68770 | -98.19967 | 38861 ft | 505 kts | 26° |
| 2026-05-05 19:31 | 21.71890 | -98.18230 | 39076 ft | 504 kts | 26° |
| 2026-05-05 19:31 | 21.74995 | -98.16501 | 39274 ft | 503 kts | 26° |
| 2026-05-05 19:32 | 21.78104 | -98.14769 | 39449 ft | 502 kts | 26° |
| 2026-05-05 19:32 | 21.81200 | -98.13043 | 39621 ft | 502 kts | 26° |
| 2026-05-05 19:32 | 21.84302 | -98.11313 | 39800 ft | 501 kts | 25° |
| 2026-05-05 19:32 | 21.87389 | -98.09590 | 39958 ft | 500 kts | 25° |
| 2026-05-05 19:33 | 21.90447 | -98.07883 | 40108 ft | 500 kts | 25° |
| 2026-05-05 19:33 | 21.93528 | -98.06162 | 40268 ft | 499 kts | 25° |
| 2026-05-05 19:33 | 21.96613 | -98.04438 | 40422 ft | 499 kts | 25° |
| 2026-05-05 19:33 | 21.99689 | -98.02718 | 40556 ft | 499 kts | 25° |
| 2026-05-05 19:34 | 22.02764 | -98.00998 | 40700 ft | 498 kts | 25° |
| 2026-05-05 19:34 | 22.05842 | -97.99276 | 40803 ft | 498 kts | 25° |
| 2026-05-05 19:35 | 22.15016 | -97.94137 | 40820 ft | 497 kts | 25° |
| 2026-05-05 19:35 | 22.21157 | -97.90693 | 40823 ft | 497 kts | 25° |
| 2026-05-05 19:36 | 22.27299 | -97.87245 | 40836 ft | 497 kts | 25° |
| 2026-05-05 19:36 | 22.33358 | -97.83625 | 40823 ft | 499 kts | 30° |
| 2026-05-05 19:37 | 22.39153 | -97.79569 | 40823 ft | 500 kts | 31° |
| 2026-05-05 19:37 | 22.44967 | -97.75453 | 40825 ft | 500 kts | 31° |
| 2026-05-05 19:38 | 22.50819 | -97.71401 | 40829 ft | 499 kts | 30° |
| 2026-05-05 19:38 | 22.56692 | -97.67383 | 40829 ft | 499 kts | 30° |
| 2026-05-05 19:39 | 22.62526 | -97.63398 | 40830 ft | 499 kts | 30° |
| 2026-05-05 19:39 | 22.68406 | -97.59383 | 40831 ft | 500 kts | 30° |
| 2026-05-05 19:40 | 22.74279 | -97.55354 | 40829 ft | 499 kts | 30° |
| 2026-05-05 19:40 | 22.80142 | -97.51325 | 40831 ft | 499 kts | 30° |
| 2026-05-05 19:41 | 22.85019 | -97.47973 | 40829 ft | 499 kts | 30° |
| 2026-05-05 19:41 | 22.91838 | -97.43282 | 40826 ft | 499 kts | 30° |
| 2026-05-05 19:42 | 22.96748 | -97.39902 | 40830 ft | 499 kts | 30° |
| 2026-05-05 19:42 | 23.03567 | -97.35203 | 40828 ft | 500 kts | 30° |
| 2026-05-05 19:43 | 23.08448 | -97.31835 | 40829 ft | 500 kts | 30° |
| 2026-05-05 19:43 | 23.15260 | -97.27132 | 40828 ft | 500 kts | 30° |
| 2026-05-05 19:44 | 23.20175 | -97.23743 | 40827 ft | 500 kts | 30° |
| 2026-05-05 19:44 | 23.26000 | -97.19712 | 40826 ft | 500 kts | 30° |
| 2026-05-05 19:45 | 23.31879 | -97.15645 | 40829 ft | 501 kts | 30° |
| 2026-05-05 19:45 | 23.37756 | -97.11573 | 40829 ft | 501 kts | 30° |
| 2026-05-05 19:46 | 23.43602 | -97.07514 | 40826 ft | 501 kts | 30° |
| 2026-05-05 19:46 | 23.49480 | -97.03429 | 40829 ft | 501 kts | 30° |
| 2026-05-05 19:47 | 23.55358 | -96.99343 | 40829 ft | 501 kts | 30° |
| 2026-05-05 19:47 | 23.61243 | -96.95247 | 40832 ft | 502 kts | 30° |
| 2026-05-05 19:48 | 23.67090 | -96.91174 | 40823 ft | 503 kts | 30° |
| 2026-05-05 19:48 | 23.72986 | -96.87070 | 40826 ft | 503 kts | 30° |
| 2026-05-05 19:49 | 23.78882 | -96.82946 | 40831 ft | 503 kts | 30° |
| 2026-05-05 19:49 | 23.84756 | -96.78827 | 40829 ft | 501 kts | 30° |
| 2026-05-05 19:50 | 23.90623 | -96.74713 | 40830 ft | 501 kts | 30° |
| 2026-05-05 19:50 | 23.96453 | -96.70622 | 40830 ft | 502 kts | 30° |
| 2026-05-05 19:51 | 24.02345 | -96.66486 | 40835 ft | 503 kts | 30° |
| 2026-05-05 19:51 | 24.08235 | -96.62354 | 40834 ft | 503 kts | 30° |
| 2026-05-05 19:52 | 24.14123 | -96.58213 | 40833 ft | 503 kts | 30° |
| 2026-05-05 19:52 | 24.19969 | -96.54091 | 40837 ft | 503 kts | 30° |
| 2026-05-05 19:53 | 24.25853 | -96.49941 | 40844 ft | 503 kts | 30° |
| 2026-05-05 19:53 | 24.31755 | -96.45776 | 40836 ft | 505 kts | 30° |
| 2026-05-05 19:54 | 24.37647 | -96.41614 | 40839 ft | 504 kts | 30° |
| 2026-05-05 19:54 | 24.43503 | -96.37472 | 40841 ft | 504 kts | 30° |
| 2026-05-05 19:55 | 24.49388 | -96.33306 | 40834 ft | 504 kts | 30° |
| 2026-05-05 19:55 | 24.55272 | -96.29135 | 40840 ft | 504 kts | 30° |
| 2026-05-05 19:56 | 24.61155 | -96.24961 | 40841 ft | 504 kts | 30° |
| 2026-05-05 19:56 | 24.67007 | -96.20805 | 40849 ft | 504 kts | 30° |
| 2026-05-05 19:57 | 24.72891 | -96.16628 | 40847 ft | 504 kts | 30° |
| 2026-05-05 19:57 | 24.78772 | -96.12440 | 40848 ft | 504 kts | 30° |
| 2026-05-05 19:58 | 24.84651 | -96.08249 | 40849 ft | 504 kts | 30° |
| 2026-05-05 19:58 | 24.90492 | -96.04082 | 40851 ft | 503 kts | 30° |
| 2026-05-05 19:59 | 24.96365 | -95.99891 | 40854 ft | 504 kts | 29° |
| 2026-05-05 19:59 | 25.02247 | -95.95691 | 40853 ft | 504 kts | 30° |
| 2026-05-05 20:00 | 25.08126 | -95.91473 | 40851 ft | 504 kts | 30° |
| 2026-05-05 20:00 | 25.13970 | -95.87277 | 40861 ft | 504 kts | 30° |
| 2026-05-05 20:01 | 25.19848 | -95.83056 | 40857 ft | 504 kts | 30° |
| 2026-05-05 20:01 | 25.25734 | -95.78824 | 40855 ft | 505 kts | 30° |
| 2026-05-05 20:02 | 25.31625 | -95.74585 | 40853 ft | 506 kts | 30° |
| 2026-05-05 20:02 | 25.36832 | -95.70834 | 40854 ft | 506 kts | 30° |
| 2026-05-05 20:03 | 25.42617 | -95.66660 | 40854 ft | 505 kts | 30° |
| 2026-05-05 20:03 | 25.48403 | -95.62481 | 40859 ft | 504 kts | 30° |
| 2026-05-05 20:04 | 25.53327 | -95.58922 | 40859 ft | 504 kts | 30° |
| 2026-05-05 20:04 | 25.58538 | -95.55151 | 40862 ft | 505 kts | 30° |
| 2026-05-05 20:05 | 25.64192 | -95.50576 | 40860 ft | 510 kts | 40° |
| 2026-05-05 20:05 | 25.68967 | -95.45545 | 40862 ft | 512 kts | 41° |
| 2026-05-05 20:06 | 25.74008 | -95.39977 | 40862 ft | 512 kts | 42° |
| 2026-05-05 20:06 | 25.79040 | -95.34376 | 40862 ft | 512 kts | 42° |
| 2026-05-05 20:07 | 25.83692 | -95.29211 | 40868 ft | 511 kts | 42° |
| 2026-05-05 20:07 | 25.88723 | -95.23637 | 40869 ft | 512 kts | 41° |
| 2026-05-05 20:08 | 25.93764 | -95.18051 | 40875 ft | 512 kts | 41° |
| 2026-05-05 20:08 | 25.98817 | -95.12443 | 40877 ft | 513 kts | 41° |
| 2026-05-05 20:09 | 26.03861 | -95.06836 | 40874 ft | 513 kts | 41° |
| 2026-05-05 20:09 | 26.08858 | -95.01275 | 40876 ft | 513 kts | 41° |
| 2026-05-05 20:10 | 26.13900 | -94.95655 | 40876 ft | 513 kts | 41° |
| 2026-05-05 20:10 | 26.18930 | -94.90043 | 40878 ft | 512 kts | 41° |
| 2026-05-05 20:11 | 26.23971 | -94.84411 | 40886 ft | 514 kts | 41° |
| 2026-05-05 20:11 | 26.28918 | -94.78877 | 40875 ft | 514 kts | 41° |
| 2026-05-05 20:12 | 26.33927 | -94.73266 | 40874 ft | 514 kts | 41° |
| 2026-05-05 20:12 | 26.38972 | -94.67607 | 40881 ft | 514 kts | 41° |
| 2026-05-05 20:13 | 26.43995 | -94.61966 | 40878 ft | 514 kts | 41° |
| 2026-05-05 20:13 | 26.49029 | -94.56304 | 40887 ft | 514 kts | 41° |
| 2026-05-05 20:14 | 26.54072 | -94.50626 | 40882 ft | 515 kts | 41° |